sensor_id;sensor_type;location;lat;lon;timestamp;temperature;humidity
15676;DHT22;7938;47.666;9.434;2023-05-07T04:02:51;10.70;99.90
15676;DHT22;7938;47.666;9.434;2023-05-07T04:05:19;10.60;99.90
15676;DHT22;7938;47.666;9.434;2023-05-07T04:07:46;10.70;99.90
15676;DHT22;7938;47.666;9.434;2023-05-07T04:10:13;10.60;99.90
15676;DHT22;7938;47.666;9.434;2023-05-07T04:12:40;10.60;99.90
15676;DHT22;7938;47.666;9.434;2023-05-07T04:15:08;10.60;99.90
15676;DHT22;7938;47.666;9.434;2023-05-07T04:17:35;10.60;99.90
15676;DHT22;7938;47.666;9.434;2023-05-07T04:20:04;10.60;99.90
15676;DHT22;7938;47.666;9.434;2023-05-07T04:22:32;10.50;99.90
15676;DHT22;7938;47.666;9.434;2023-05-07T04:25:00;10.50;99.90
15676;DHT22;7938;47.666;9.434;2023-05-07T04:27:27;10.60;99.90
15676;DHT22;7938;47.666;9.434;2023-05-07T04:29:54;10.50;99.90
15676;DHT22;7938;47.666;9.434;2023-05-07T04:32:22;10.70;99.90
15676;DHT22;7938;47.666;9.434;2023-05-07T04:34:50;10.70;99.90
15676;DHT22;7938;47.666;9.434;2023-05-07T04:37:18;10.80;99.90
15676;DHT22;7938;47.666;9.434;2023-05-07T04:39:45;10.90;99.90
15676;DHT22;7938;47.666;9.434;2023-05-07T04:42:14;10.90;99.90
15676;DHT22;7938;47.666;9.434;2023-05-07T04:44:41;11.00;99.90
15676;DHT22;7938;47.666;9.434;2023-05-07T04:47:08;11.10;99.90
15676;DHT22;7938;47.666;9.434;2023-05-07T04:49:35;11.10;99.90
15676;DHT22;7938;47.666;9.434;2023-05-07T04:52:02;11.20;99.90
15676;DHT22;7938;47.666;9.434;2023-05-07T04:54:31;11.30;99.90
15676;DHT22;7938;47.666;9.434;2023-05-07T04:56:58;11.40;99.90
15676;DHT22;7938;47.666;9.434;2023-05-07T04:59:25;11.50;99.90
15676;DHT22;7938;47.666;9.434;2023-05-07T05:01:51;11.70;99.90
15676;DHT22;7938;47.666;9.434;2023-05-07T05:04:18;11.70;99.90
15676;DHT22;7938;47.666;9.434;2023-05-07T05:06:45;11.80;99.90
15676;DHT22;7938;47.666;9.434;2023-05-07T05:09:12;12.00;99.90
15676;DHT22;7938;47.666;9.434;2023-05-07T05:11:41;12.10;99.90
15676;DHT22;7938;47.666;9.434;2023-05-07T05:14:08;12.20;99.90
15676;DHT22;7938;47.666;9.434;2023-05-07T05:16:35;12.30;99.90
15676;DHT22;7938;47.666;9.434;2023-05-07T05:19:02;12.40;99.90
15676;DHT22;7938;47.666;9.434;2023-05-07T05:21:31;12.50;99.90
15676;DHT22;7938;47.666;9.434;2023-05-07T05:23:58;12.60;99.90
15676;DHT22;7938;47.666;9.434;2023-05-07T05:26:25;12.60;99.90
15676;DHT22;7938;47.666;9.434;2023-05-07T05:28:53;12.80;99.90
15676;DHT22;7938;47.666;9.434;2023-05-07T05:31:20;12.80;99.90
15676;DHT22;7938;47.666;9.434;2023-05-07T05:33:47;13.00;99.90
15676;DHT22;7938;47.666;9.434;2023-05-07T05:36:14;13.10;99.90
15676;DHT22;7938;47.666;9.434;2023-05-07T05:38:42;13.00;99.90
15676;DHT22;7938;47.666;9.434;2023-05-07T05:41:09;13.10;99.90
15676;DHT22;7938;47.666;9.434;2023-05-07T05:43:36;13.10;99.90
15676;DHT22;7938;47.666;9.434;2023-05-07T05:46:04;13.10;99.90
15676;DHT22;7938;47.666;9.434;2023-05-07T05:48:31;13.10;99.90
15676;DHT22;7938;47.666;9.434;2023-05-07T05:50:58;13.10;99.90
15676;DHT22;7938;47.666;9.434;2023-05-07T05:53:25;13.20;99.90
15676;DHT22;7938;47.666;9.434;2023-05-07T05:55:52;13.30;99.90
15676;DHT22;7938;47.666;9.434;2023-05-07T05:58:19;13.30;99.90
15676;DHT22;7938;47.666;9.434;2023-05-07T06:00:46;13.50;99.90
15676;DHT22;7938;47.666;9.434;2023-05-07T06:03:15;13.70;99.90
15676;DHT22;7938;47.666;9.434;2023-05-07T06:05:42;13.90;99.90
15676;DHT22;7938;47.666;9.434;2023-05-07T06:08:08;14.20;99.90
15676;DHT22;7938;47.666;9.434;2023-05-07T06:10:36;14.30;99.90
15676;DHT22;7938;47.666;9.434;2023-05-07T06:13:03;14.30;99.90
15676;DHT22;7938;47.666;9.434;2023-05-07T06:15:29;14.40;99.90
15676;DHT22;7938;47.666;9.434;2023-05-07T06:17:56;14.50;99.90
15676;DHT22;7938;47.666;9.434;2023-05-07T06:20:25;14.70;99.90
15676;DHT22;7938;47.666;9.434;2023-05-07T06:22:51;14.70;99.90
15676;DHT22;7938;47.666;9.434;2023-05-07T06:25:18;14.80;99.90
15676;DHT22;7938;47.666;9.434;2023-05-07T06:27:45;14.80;99.90
15676;DHT22;7938;47.666;9.434;2023-05-07T06:30:12;14.90;99.90
15676;DHT22;7938;47.666;9.434;2023-05-07T06:32:40;15.00;99.90
15676;DHT22;7938;47.666;9.434;2023-05-07T06:35:08;15.10;99.90
15676;DHT22;7938;47.666;9.434;2023-05-07T06:37:36;15.20;99.90
15676;DHT22;7938;47.666;9.434;2023-05-07T06:40:05;15.20;99.90
15676;DHT22;7938;47.666;9.434;2023-05-07T06:42:32;15.30;99.90
15676;DHT22;7938;47.666;9.434;2023-05-07T06:44:59;15.40;99.90
15676;DHT22;7938;47.666;9.434;2023-05-07T06:47:26;15.50;99.90
15676;DHT22;7938;47.666;9.434;2023-05-07T06:49:53;15.70;99.90
15676;DHT22;7938;47.666;9.434;2023-05-07T06:52:20;15.70;99.90
15676;DHT22;7938;47.666;9.434;2023-05-07T06:54:48;15.80;99.90
15676;DHT22;7938;47.666;9.434;2023-05-07T06:57:15;15.80;99.90
15676;DHT22;7938;47.666;9.434;2023-05-07T06:59:42;15.80;99.90
15676;DHT22;7938;47.666;9.434;2023-05-07T07:02:09;15.80;99.90
15676;DHT22;7938;47.666;9.434;2023-05-07T07:04:36;15.80;99.90
15676;DHT22;7938;47.666;9.434;2023-05-07T07:07:03;15.80;99.90
15676;DHT22;7938;47.666;9.434;2023-05-07T07:09:30;15.80;99.90
15676;DHT22;7938;47.666;9.434;2023-05-07T07:11:59;15.80;99.90
15676;DHT22;7938;47.666;9.434;2023-05-07T07:14:25;15.80;99.90
15676;DHT22;7938;47.666;9.434;2023-05-07T07:16:52;15.80;99.90
15676;DHT22;7938;47.666;9.434;2023-05-07T07:19:19;15.80;99.90
15676;DHT22;7938;47.666;9.434;2023-05-07T07:21:46;15.80;99.90
15676;DHT22;7938;47.666;9.434;2023-05-07T07:24:13;15.80;99.90
15676;DHT22;7938;47.666;9.434;2023-05-07T07:26:44;15.80;99.90
15676;DHT22;7938;47.666;9.434;2023-05-07T07:29:12;15.90;99.90
15676;DHT22;7938;47.666;9.434;2023-05-07T07:31:39;15.80;99.90
15676;DHT22;7938;47.666;9.434;2023-05-07T07:34:06;15.80;99.90
15676;DHT22;7938;47.666;9.434;2023-05-07T07:36:33;15.80;99.90
15676;DHT22;7938;47.666;9.434;2023-05-07T07:39:00;15.80;99.90
15676;DHT22;7938;47.666;9.434;2023-05-07T07:41:27;15.90;99.90
15676;DHT22;7938;47.666;9.434;2023-05-07T07:43:54;16.00;99.90
15676;DHT22;7938;47.666;9.434;2023-05-07T07:46:22;16.00;99.90
15676;DHT22;7938;47.666;9.434;2023-05-07T07:48:49;16.10;99.90
15676;DHT22;7938;47.666;9.434;2023-05-07T07:51:16;16.10;99.90
15676;DHT22;7938;47.666;9.434;2023-05-07T07:53:43;16.00;99.90
15676;DHT22;7938;47.666;9.434;2023-05-07T07:56:10;16.00;99.90
15676;DHT22;7938;47.666;9.434;2023-05-07T07:58:37;16.10;99.90
15676;DHT22;7938;47.666;9.434;2023-05-07T08:01:04;16.20;99.90
15676;DHT22;7938;47.666;9.434;2023-05-07T08:03:33;16.20;99.90
15676;DHT22;7938;47.666;9.434;2023-05-07T08:05:59;16.30;99.90
15676;DHT22;7938;47.666;9.434;2023-05-07T08:08:26;16.20;99.90
15676;DHT22;7938;47.666;9.434;2023-05-07T08:10:53;16.30;99.90
15676;DHT22;7938;47.666;9.434;2023-05-07T08:13:20;16.60;99.90
15676;DHT22;7938;47.666;9.434;2023-05-07T08:15:47;16.60;99.90
15676;DHT22;7938;47.666;9.434;2023-05-07T08:18:14;16.60;99.90
15676;DHT22;7938;47.666;9.434;2023-05-07T08:20:43;16.80;99.90
15676;DHT22;7938;47.666;9.434;2023-05-07T08:23:09;16.90;99.90
15676;DHT22;7938;47.666;9.434;2023-05-07T08:25:36;16.90;99.90
15676;DHT22;7938;47.666;9.434;2023-05-07T08:28:03;17.00;99.90
15676;DHT22;7938;47.666;9.434;2023-05-07T08:30:30;17.20;99.90
15676;DHT22;7938;47.666;9.434;2023-05-07T08:32:57;17.10;99.90
15676;DHT22;7938;47.666;9.434;2023-05-07T08:35:24;17.40;99.90
15676;DHT22;7938;47.666;9.434;2023-05-07T08:37:54;17.50;99.90
15676;DHT22;7938;47.666;9.434;2023-05-07T08:40:21;17.30;99.90
15676;DHT22;7938;47.666;9.434;2023-05-07T08:42:51;17.20;99.90
15676;DHT22;7938;47.666;9.434;2023-05-07T08:45:19;17.30;99.90
15676;DHT22;7938;47.666;9.434;2023-05-07T08:47:49;17.40;99.90
15676;DHT22;7938;47.666;9.434;2023-05-07T08:50:18;17.40;99.90
15676;DHT22;7938;47.666;9.434;2023-05-07T08:52:47;17.50;99.90
15676;DHT22;7938;47.666;9.434;2023-05-07T08:55:16;17.50;99.90
15676;DHT22;7938;47.666;9.434;2023-05-07T08:57:43;17.60;99.90
15676;DHT22;7938;47.666;9.434;2023-05-07T09:00:11;18.20;99.90
15676;DHT22;7938;47.666;9.434;2023-05-07T09:02:38;18.50;99.90
15676;DHT22;7938;47.666;9.434;2023-05-07T09:05:06;18.90;99.90
15676;DHT22;7938;47.666;9.434;2023-05-07T09:07:33;19.00;99.90
15676;DHT22;7938;47.666;9.434;2023-05-07T09:10:02;19.00;99.90
15676;DHT22;7938;47.666;9.434;2023-05-07T09:12:31;19.10;99.90
15676;DHT22;7938;47.666;9.434;2023-05-07T09:14:59;19.40;99.90
15676;DHT22;7938;47.666;9.434;2023-05-07T09:17:26;19.40;99.90
15676;DHT22;7938;47.666;9.434;2023-05-07T09:19:53;19.60;99.90
15676;DHT22;7938;47.666;9.434;2023-05-07T09:22:20;19.70;99.90
15676;DHT22;7938;47.666;9.434;2023-05-07T09:24:48;19.90;99.90
15676;DHT22;7938;47.666;9.434;2023-05-07T09:27:15;19.70;99.90
15676;DHT22;7938;47.666;9.434;2023-05-07T09:29:43;19.70;99.90
15676;DHT22;7938;47.666;9.434;2023-05-07T09:32:10;20.00;99.90
15676;DHT22;7938;47.666;9.434;2023-05-07T09:34:37;20.10;99.90
15676;DHT22;7938;47.666;9.434;2023-05-07T09:37:06;20.20;99.90
15676;DHT22;7938;47.666;9.434;2023-05-07T09:39:41;20.30;99.90
15676;DHT22;7938;47.666;9.434;2023-05-07T09:42:08;20.50;99.90
15676;DHT22;7938;47.666;9.434;2023-05-07T09:44:37;20.60;99.90
15676;DHT22;7938;47.666;9.434;2023-05-07T09:47:06;20.30;99.90
15676;DHT22;7938;47.666;9.434;2023-05-07T09:49:35;20.20;99.90
15676;DHT22;7938;47.666;9.434;2023-05-07T09:52:03;20.00;99.90
15676;DHT22;7938;47.666;9.434;2023-05-07T09:54:33;19.80;99.90
15676;DHT22;7938;47.666;9.434;2023-05-07T09:57:02;19.80;99.90
15676;DHT22;7938;47.666;9.434;2023-05-07T09:59:30;19.70;99.90
15676;DHT22;7938;47.666;9.434;2023-05-07T10:01:59;19.70;99.90
15676;DHT22;7938;47.666;9.434;2023-05-07T10:04:28;19.80;99.90
15676;DHT22;7938;47.666;9.434;2023-05-07T10:06:56;19.80;99.90
15676;DHT22;7938;47.666;9.434;2023-05-07T10:09:23;20.00;99.90
15676;DHT22;7938;47.666;9.434;2023-05-07T10:11:51;20.50;99.90
15676;DHT22;7938;47.666;9.434;2023-05-07T10:14:20;20.80;99.90
15676;DHT22;7938;47.666;9.434;2023-05-07T10:16:48;21.00;99.90
15676;DHT22;7938;47.666;9.434;2023-05-07T10:19:15;21.00;99.90
15676;DHT22;7938;47.666;9.434;2023-05-07T10:21:50;21.20;99.90
15676;DHT22;7938;47.666;9.434;2023-05-07T10:24:21;21.50;99.90
15676;DHT22;7938;47.666;9.434;2023-05-07T10:26:53;21.40;99.90
15676;DHT22;7938;47.666;9.434;2023-05-07T10:29:33;21.50;99.90
15676;DHT22;7938;47.666;9.434;2023-05-07T10:32:14;21.60;99.90
15676;DHT22;7938;47.666;9.434;2023-05-07T10:34:49;21.80;99.90
15676;DHT22;7938;47.666;9.434;2023-05-07T10:37:19;22.00;99.90
15676;DHT22;7938;47.666;9.434;2023-05-07T10:39:46;21.90;99.90
15676;DHT22;7938;47.666;9.434;2023-05-07T10:42:14;22.20;99.90
15676;DHT22;7938;47.666;9.434;2023-05-07T10:44:41;22.10;99.90
15676;DHT22;7938;47.666;9.434;2023-05-07T10:47:09;22.20;99.90
15676;DHT22;7938;47.666;9.434;2023-05-07T10:49:51;22.40;99.90
15676;DHT22;7938;47.666;9.434;2023-05-07T10:52:40;22.60;99.80
15676;DHT22;7938;47.666;9.434;2023-05-07T10:55:20;22.60;99.90
15676;DHT22;7938;47.666;9.434;2023-05-07T10:57:50;22.50;99.90
15676;DHT22;7938;47.666;9.434;2023-05-07T11:00:42;22.40;99.90
15676;DHT22;7938;47.666;9.434;2023-05-07T11:03:10;23.00;99.90
15676;DHT22;7938;47.666;9.434;2023-05-07T11:05:37;22.80;99.90
15676;DHT22;7938;47.666;9.434;2023-05-07T11:08:06;22.60;99.90
15676;DHT22;7938;47.666;9.434;2023-05-07T11:10:54;22.90;98.70
15676;DHT22;7938;47.666;9.434;2023-05-07T11:13:42;22.80;97.80
15676;DHT22;7938;47.666;9.434;2023-05-07T11:16:17;22.90;98.90
15676;DHT22;7938;47.666;9.434;2023-05-07T11:18:48;23.10;99.90
15676;DHT22;7938;47.666;9.434;2023-05-07T11:21:33;23.10;98.00
15676;DHT22;7938;47.666;9.434;2023-05-07T11:24:03;23.20;98.80
15676;DHT22;7938;47.666;9.434;2023-05-07T11:26:41;23.60;98.30
15676;DHT22;7938;47.666;9.434;2023-05-07T11:29:11;23.40;97.80
15676;DHT22;7938;47.666;9.434;2023-05-07T11:31:38;23.80;96.00
15676;DHT22;7938;47.666;9.434;2023-05-07T11:34:05;23.60;97.60
15676;DHT22;7938;47.666;9.434;2023-05-07T11:36:33;23.30;97.50
15676;DHT22;7938;47.666;9.434;2023-05-07T11:39:01;23.40;97.70
15676;DHT22;7938;47.666;9.434;2023-05-07T11:41:35;23.40;97.00
15676;DHT22;7938;47.666;9.434;2023-05-07T11:44:02;23.60;97.80
15676;DHT22;7938;47.666;9.434;2023-05-07T11:46:30;24.00;97.20
15676;DHT22;7938;47.666;9.434;2023-05-07T11:48:58;23.90;97.00
15676;DHT22;7938;47.666;9.434;2023-05-07T11:51:27;24.20;95.80
15676;DHT22;7938;47.666;9.434;2023-05-07T11:53:54;24.30;95.50
15676;DHT22;7938;47.666;9.434;2023-05-07T11:56:22;24.20;96.30
15676;DHT22;7938;47.666;9.434;2023-05-07T11:58:49;24.00;96.70
15676;DHT22;7938;47.666;9.434;2023-05-07T12:01:17;24.10;96.90
15676;DHT22;7938;47.666;9.434;2023-05-07T12:03:45;23.90;97.40
15676;DHT22;7938;47.666;9.434;2023-05-07T12:06:14;24.00;96.00
15676;DHT22;7938;47.666;9.434;2023-05-07T12:08:42;24.30;95.40
15676;DHT22;7938;47.666;9.434;2023-05-07T12:11:12;24.40;95.10
15676;DHT22;7938;47.666;9.434;2023-05-07T12:13:41;24.30;94.90
15676;DHT22;7938;47.666;9.434;2023-05-07T12:16:09;24.40;94.60
15676;DHT22;7938;47.666;9.434;2023-05-07T12:18:38;24.60;94.50
15676;DHT22;7938;47.666;9.434;2023-05-07T12:21:06;24.40;95.70
15676;DHT22;7938;47.666;9.434;2023-05-07T12:23:34;24.10;96.10
15676;DHT22;7938;47.666;9.434;2023-05-07T12:26:02;24.20;96.40
15676;DHT22;7938;47.666;9.434;2023-05-07T12:28:29;24.40;95.60
15676;DHT22;7938;47.666;9.434;2023-05-07T12:30:58;24.70;94.60
15676;DHT22;7938;47.666;9.434;2023-05-07T12:33:26;24.90;95.20
15676;DHT22;7938;47.666;9.434;2023-05-07T12:35:55;24.90;94.80
15676;DHT22;7938;47.666;9.434;2023-05-07T12:38:22;24.60;95.40
15676;DHT22;7938;47.666;9.434;2023-05-07T12:40:50;24.40;96.30
15676;DHT22;7938;47.666;9.434;2023-05-07T12:43:18;24.40;96.60
15676;DHT22;7938;47.666;9.434;2023-05-07T12:45:46;24.00;96.10
15676;DHT22;7938;47.666;9.434;2023-05-07T12:48:14;24.00;96.50
15676;DHT22;7938;47.666;9.434;2023-05-07T12:50:41;23.70;97.60
15676;DHT22;7938;47.666;9.434;2023-05-07T12:53:11;23.70;97.60
15676;DHT22;7938;47.666;9.434;2023-05-07T12:55:42;23.70;96.50
15676;DHT22;7938;47.666;9.434;2023-05-07T12:58:18;24.00;96.30
15676;DHT22;7938;47.666;9.434;2023-05-07T13:00:46;24.10;95.50
15676;DHT22;7938;47.666;9.434;2023-05-07T13:03:21;23.90;96.00
15676;DHT22;7938;47.666;9.434;2023-05-07T13:05:48;23.90;96.40
15676;DHT22;7938;47.666;9.434;2023-05-07T13:08:24;24.10;95.70
15676;DHT22;7938;47.666;9.434;2023-05-07T13:10:51;24.20;95.20
15676;DHT22;7938;47.666;9.434;2023-05-07T13:13:18;24.70;94.30
15676;DHT22;7938;47.666;9.434;2023-05-07T13:15:45;24.60;95.90
15676;DHT22;7938;47.666;9.434;2023-05-07T13:18:12;24.80;95.00
15676;DHT22;7938;47.666;9.434;2023-05-07T13:20:40;24.50;94.80
15676;DHT22;7938;47.666;9.434;2023-05-07T13:23:07;24.50;95.20
15676;DHT22;7938;47.666;9.434;2023-05-07T13:25:34;24.70;95.10
15676;DHT22;7938;47.666;9.434;2023-05-07T13:28:01;25.00;94.20
15676;DHT22;7938;47.666;9.434;2023-05-07T13:30:29;24.70;94.30
15676;DHT22;7938;47.666;9.434;2023-05-07T13:32:56;24.70;94.90
15676;DHT22;7938;47.666;9.434;2023-05-07T13:35:23;24.80;94.20
15676;DHT22;7938;47.666;9.434;2023-05-07T13:37:51;24.90;93.90
15676;DHT22;7938;47.666;9.434;2023-05-07T13:40:20;24.80;94.30
15676;DHT22;7938;47.666;9.434;2023-05-07T13:42:47;24.80;94.00
15676;DHT22;7938;47.666;9.434;2023-05-07T13:45:14;24.70;93.70
15676;DHT22;7938;47.666;9.434;2023-05-07T13:47:41;24.70;93.80
15676;DHT22;7938;47.666;9.434;2023-05-07T13:50:09;24.70;94.00
15676;DHT22;7938;47.666;9.434;2023-05-07T13:52:37;24.70;94.10
15676;DHT22;7938;47.666;9.434;2023-05-07T13:55:07;24.80;94.40
15676;DHT22;7938;47.666;9.434;2023-05-07T13:57:34;24.70;93.60
15676;DHT22;7938;47.666;9.434;2023-05-07T14:00:01;24.80;93.60
15676;DHT22;7938;47.666;9.434;2023-05-07T14:02:30;24.80;94.10
15676;DHT22;7938;47.666;9.434;2023-05-07T14:04:57;24.70;94.00
15676;DHT22;7938;47.666;9.434;2023-05-07T14:07:24;24.30;95.30
15676;DHT22;7938;47.666;9.434;2023-05-07T14:09:50;24.40;95.40
15676;DHT22;7938;47.666;9.434;2023-05-07T14:12:19;24.50;95.30
15676;DHT22;7938;47.666;9.434;2023-05-07T14:14:46;24.90;94.90
15676;DHT22;7938;47.666;9.434;2023-05-07T14:17:15;25.60;94.50
15676;DHT22;7938;47.666;9.434;2023-05-07T14:19:42;26.30;93.50
15676;DHT22;7938;47.666;9.434;2023-05-07T14:22:09;26.30;92.70
15676;DHT22;7938;47.666;9.434;2023-05-07T14:24:36;25.70;92.80
15676;DHT22;7938;47.666;9.434;2023-05-07T14:27:04;25.30;93.10
15676;DHT22;7938;47.666;9.434;2023-05-07T14:29:32;25.00;93.90
15676;DHT22;7938;47.666;9.434;2023-05-07T14:32:01;24.80;94.00
15676;DHT22;7938;47.666;9.434;2023-05-07T14:34:28;24.40;94.40
15676;DHT22;7938;47.666;9.434;2023-05-07T14:36:55;24.20;93.90
15676;DHT22;7938;47.666;9.434;2023-05-07T14:39:22;23.80;95.00
15676;DHT22;7938;47.666;9.434;2023-05-07T14:41:49;23.90;94.70
15676;DHT22;7938;47.666;9.434;2023-05-07T14:44:16;24.00;94.90
15676;DHT22;7938;47.666;9.434;2023-05-07T14:46:44;23.70;95.00
15676;DHT22;7938;47.666;9.434;2023-05-07T14:49:11;23.70;94.60
15676;DHT22;7938;47.666;9.434;2023-05-07T14:51:42;24.20;94.60
15676;DHT22;7938;47.666;9.434;2023-05-07T14:54:10;24.30;95.10
15676;DHT22;7938;47.666;9.434;2023-05-07T14:56:37;24.60;94.40
15676;DHT22;7938;47.666;9.434;2023-05-07T14:59:04;24.50;94.00
15676;DHT22;7938;47.666;9.434;2023-05-07T15:01:31;24.20;93.20
15676;DHT22;7938;47.666;9.434;2023-05-07T15:03:59;24.30;93.80
15676;DHT22;7938;47.666;9.434;2023-05-07T15:06:26;24.20;94.00
15676;DHT22;7938;47.666;9.434;2023-05-07T15:08:53;24.10;93.70
15676;DHT22;7938;47.666;9.434;2023-05-07T15:11:20;24.70;93.30
15676;DHT22;7938;47.666;9.434;2023-05-07T15:13:47;25.10;93.00
15676;DHT22;7938;47.666;9.434;2023-05-07T15:16:14;25.50;92.10
15676;DHT22;7938;47.666;9.434;2023-05-07T15:18:42;25.40;92.40
15676;DHT22;7938;47.666;9.434;2023-05-07T15:21:10;24.90;92.10
15676;DHT22;7938;47.666;9.434;2023-05-07T15:23:37;24.50;91.80
15676;DHT22;7938;47.666;9.434;2023-05-07T15:26:04;24.20;92.10
15676;DHT22;7938;47.666;9.434;2023-05-07T15:28:33;24.00;92.90
15676;DHT22;7938;47.666;9.434;2023-05-07T15:30:59;23.50;91.60
15676;DHT22;7938;47.666;9.434;2023-05-07T15:33:26;23.30;91.40
15676;DHT22;7938;47.666;9.434;2023-05-07T15:35:53;22.80;91.70
15676;DHT22;7938;47.666;9.434;2023-05-07T15:38:25;22.60;92.30
15676;DHT22;7938;47.666;9.434;2023-05-07T15:40:52;22.60;91.50
15676;DHT22;7938;47.666;9.434;2023-05-07T15:43:20;22.40;92.50
15676;DHT22;7938;47.666;9.434;2023-05-07T15:45:47;22.20;93.10
15676;DHT22;7938;47.666;9.434;2023-05-07T15:48:14;22.20;93.10
15676;DHT22;7938;47.666;9.434;2023-05-07T15:50:41;22.70;92.40
15676;DHT22;7938;47.666;9.434;2023-05-07T15:53:08;22.80;92.60
15676;DHT22;7938;47.666;9.434;2023-05-07T15:55:36;22.90;92.80
15676;DHT22;7938;47.666;9.434;2023-05-07T15:58:03;22.60;93.10
15676;DHT22;7938;47.666;9.434;2023-05-07T16:00:31;21.90;93.60
15676;DHT22;7938;47.666;9.434;2023-05-07T16:03:00;21.90;93.80
15676;DHT22;7938;47.666;9.434;2023-05-07T16:05:27;21.70;93.80
15676;DHT22;7938;47.666;9.434;2023-05-07T16:07:54;21.60;94.50
15676;DHT22;7938;47.666;9.434;2023-05-07T16:10:22;21.70;94.40
15676;DHT22;7938;47.666;9.434;2023-05-07T16:12:50;21.70;94.10
15676;DHT22;7938;47.666;9.434;2023-05-07T16:15:17;21.70;94.50
15676;DHT22;7938;47.666;9.434;2023-05-07T16:17:45;21.50;94.20
15676;DHT22;7938;47.666;9.434;2023-05-07T16:20:13;21.40;93.90
15676;DHT22;7938;47.666;9.434;2023-05-07T16:22:44;21.30;94.00
15676;DHT22;7938;47.666;9.434;2023-05-07T16:25:11;21.20;94.00
15676;DHT22;7938;47.666;9.434;2023-05-07T16:27:39;21.10;94.30
15676;DHT22;7938;47.666;9.434;2023-05-07T16:30:08;21.00;94.20
15676;DHT22;7938;47.666;9.434;2023-05-07T16:32:36;21.10;94.30
15676;DHT22;7938;47.666;9.434;2023-05-07T16:35:03;21.00;94.40
15676;DHT22;7938;47.666;9.434;2023-05-07T16:37:32;20.90;95.00
15676;DHT22;7938;47.666;9.434;2023-05-07T16:39:59;20.80;95.10
15676;DHT22;7938;47.666;9.434;2023-05-07T16:42:27;20.70;95.10
15676;DHT22;7938;47.666;9.434;2023-05-07T16:44:54;20.50;95.70
15676;DHT22;7938;47.666;9.434;2023-05-07T16:47:22;20.40;95.50
15676;DHT22;7938;47.666;9.434;2023-05-07T16:49:49;20.20;95.80
15676;DHT22;7938;47.666;9.434;2023-05-07T16:52:16;20.00;95.80
15676;DHT22;7938;47.666;9.434;2023-05-07T16:54:43;20.00;95.50
15676;DHT22;7938;47.666;9.434;2023-05-07T16:57:10;19.90;95.70
15676;DHT22;7938;47.666;9.434;2023-05-07T16:59:37;19.80;96.10
15676;DHT22;7938;47.666;9.434;2023-05-07T17:02:04;19.70;96.40
15676;DHT22;7938;47.666;9.434;2023-05-07T17:04:32;19.60;96.60
15676;DHT22;7938;47.666;9.434;2023-05-07T17:06:59;19.50;97.10
15676;DHT22;7938;47.666;9.434;2023-05-07T17:09:26;19.30;96.80
15676;DHT22;7938;47.666;9.434;2023-05-07T17:11:53;19.10;96.90
15676;DHT22;7938;47.666;9.434;2023-05-07T17:14:20;19.10;97.70
15676;DHT22;7938;47.666;9.434;2023-05-07T17:16:47;18.80;98.00
15676;DHT22;7938;47.666;9.434;2023-05-07T17:19:14;18.60;98.20
15676;DHT22;7938;47.666;9.434;2023-05-07T17:21:42;18.30;99.90
15676;DHT22;7938;47.666;9.434;2023-05-07T17:24:09;18.20;99.90
15676;DHT22;7938;47.666;9.434;2023-05-07T17:26:36;18.10;99.90
15676;DHT22;7938;47.666;9.434;2023-05-07T17:29:04;17.90;99.90
15676;DHT22;7938;47.666;9.434;2023-05-07T17:31:31;17.80;99.90
15676;DHT22;7938;47.666;9.434;2023-05-07T17:33:58;17.70;99.90
15676;DHT22;7938;47.666;9.434;2023-05-07T17:36:25;17.70;99.90
15676;DHT22;7938;47.666;9.434;2023-05-07T17:38:53;17.50;99.90
15676;DHT22;7938;47.666;9.434;2023-05-07T17:41:20;17.40;99.90
15676;DHT22;7938;47.666;9.434;2023-05-07T17:43:47;17.30;99.90
15676;DHT22;7938;47.666;9.434;2023-05-07T17:46:14;17.30;99.90
15676;DHT22;7938;47.666;9.434;2023-05-07T17:48:41;17.20;99.90
15676;DHT22;7938;47.666;9.434;2023-05-07T17:51:08;17.10;99.90
15676;DHT22;7938;47.666;9.434;2023-05-07T17:53:35;17.00;99.90
15676;DHT22;7938;47.666;9.434;2023-05-07T17:56:04;16.90;99.90
15676;DHT22;7938;47.666;9.434;2023-05-07T17:58:31;16.70;99.90
15676;DHT22;7938;47.666;9.434;2023-05-07T18:00:58;16.30;99.90
15676;DHT22;7938;47.666;9.434;2023-05-07T18:03:25;16.30;99.90
15676;DHT22;7938;47.666;9.434;2023-05-07T18:05:53;16.20;99.90
15676;DHT22;7938;47.666;9.434;2023-05-07T18:08:20;16.10;99.90
15676;DHT22;7938;47.666;9.434;2023-05-07T18:10:47;15.80;99.90
15676;DHT22;7938;47.666;9.434;2023-05-07T18:13:15;15.80;99.90
15676;DHT22;7938;47.666;9.434;2023-05-07T18:15:44;15.70;99.90
15676;DHT22;7938;47.666;9.434;2023-05-07T18:18:11;15.60;99.90
15676;DHT22;7938;47.666;9.434;2023-05-07T18:20:38;15.40;99.90
15676;DHT22;7938;47.666;9.434;2023-05-07T18:23:05;15.30;99.90
15676;DHT22;7938;47.666;9.434;2023-05-07T18:25:33;15.20;99.90
15676;DHT22;7938;47.666;9.434;2023-05-07T18:28:00;15.20;99.90
15676;DHT22;7938;47.666;9.434;2023-05-07T18:30:28;15.00;99.90
15676;DHT22;7938;47.666;9.434;2023-05-07T18:32:55;15.00;99.90
15676;DHT22;7938;47.666;9.434;2023-05-07T18:35:22;15.00;99.90
15676;DHT22;7938;47.666;9.434;2023-05-07T18:37:49;14.90;99.90
15676;DHT22;7938;47.666;9.434;2023-05-07T18:40:16;14.80;99.90
15676;DHT22;7938;47.666;9.434;2023-05-07T18:42:45;14.80;99.90
15676;DHT22;7938;47.666;9.434;2023-05-07T18:45:12;14.80;99.90
15676;DHT22;7938;47.666;9.434;2023-05-07T18:47:40;14.80;99.90
15676;DHT22;7938;47.666;9.434;2023-05-07T18:50:08;14.70;99.90
15676;DHT22;7938;47.666;9.434;2023-05-07T18:52:35;14.70;99.90
15676;DHT22;7938;47.666;9.434;2023-05-07T18:55:03;14.60;99.90
15676;DHT22;7938;47.666;9.434;2023-05-07T18:57:30;14.60;99.90
15676;DHT22;7938;47.666;9.434;2023-05-07T18:59:56;14.50;99.90
15676;DHT22;7938;47.666;9.434;2023-05-07T19:02:23;14.40;99.90
15676;DHT22;7938;47.666;9.434;2023-05-07T19:04:52;14.30;99.90
15676;DHT22;7938;47.666;9.434;2023-05-07T19:07:19;14.30;99.90
15676;DHT22;7938;47.666;9.434;2023-05-07T19:09:45;14.30;99.90
15676;DHT22;7938;47.666;9.434;2023-05-07T19:12:12;14.30;99.90
15676;DHT22;7938;47.666;9.434;2023-05-07T19:14:39;14.30;99.90
15676;DHT22;7938;47.666;9.434;2023-05-07T19:17:07;14.30;99.90
15676;DHT22;7938;47.666;9.434;2023-05-07T19:19:34;14.30;99.90
15676;DHT22;7938;47.666;9.434;2023-05-07T19:22:03;14.30;99.90
15676;DHT22;7938;47.666;9.434;2023-05-07T19:26:57;14.30;99.90
15676;DHT22;7938;47.666;9.434;2023-05-07T19:29:24;14.30;99.90
15676;DHT22;7938;47.666;9.434;2023-05-07T19:31:51;14.20;99.90
15676;DHT22;7938;47.666;9.434;2023-05-07T19:34:18;14.20;99.90
15676;DHT22;7938;47.666;9.434;2023-05-07T19:36:45;14.20;99.90
15676;DHT22;7938;47.666;9.434;2023-05-07T19:39:13;14.20;99.90
15676;DHT22;7938;47.666;9.434;2023-05-07T19:41:40;14.20;99.90
15676;DHT22;7938;47.666;9.434;2023-05-07T19:44:07;14.20;99.90
15676;DHT22;7938;47.666;9.434;2023-05-07T19:46:34;14.30;99.90
15676;DHT22;7938;47.666;9.434;2023-05-07T19:49:04;14.30;99.90
15676;DHT22;7938;47.666;9.434;2023-05-07T19:51:31;14.30;99.90
15676;DHT22;7938;47.666;9.434;2023-05-07T19:53:58;14.20;99.90